Time;durP1;ratioP1;P1;durP2;ratioP2;P2;SDS_P1;SDS_P2;PMS_P1;PMS_P2;Temp;Humidity;BMP_temperature;BMP_pressure;BME280_temperature;BME280_humidity;BME280_pressure;Samples;Min_cycle;Max_cycle;Signal;HPM_P1;HPM_P2
2022/06/22 17:41:38;;;;;;;6.80;2.75;;;;;;;;;;5614345;23;20111;-70
2022/06/22 17:44:12;;;;;;;7.93;2.83;;;;;;;;;;4841361;29;20046;-70
2022/06/22 17:46:56;;;;;;;7.78;2.80;;;;;;;;;;4839154;29;20118;-73
2022/06/22 17:49:21;;;;;;;12.10;2.88;;;;;;;;;;4837983;29;20394;-73
2022/06/22 17:51:57;;;;;;;12.05;3.00;;;;;;;;;;4823214;29;20038;-74
2022/06/22 17:54:31;;;;;;;12.77;2.90;;;;;;;;;;4843555;29;20050;-75
2022/06/22 17:57:00;;;;;;;9.95;3.20;;;;;;;;;;4837915;29;20121;-74
2022/06/22 17:59:46;;;;;;;12.00;3.28;;;;;;;;;;4837423;29;20058;-72
2022/06/22 18:02:17;;;;;;;10.77;3.00;;;;;;;;;;4824827;29;20046;-74
2022/06/22 18:04:55;;;;;;;13.35;3.25;;;;;;;;;;4840271;29;20433;-74
2022/06/22 18:07:32;;;;;;;7.25;2.80;;;;;;;;;;4835800;29;20456;-74
2022/06/22 18:10:00;;;;;;;7.20;2.67;;;;;;;;;;4833264;29;20077;-73
2022/06/22 18:12:33;;;;;;;12.38;3.30;;;;;;;;;;4828233;29;20091;-73
2022/06/22 18:15:01;;;;;;;11.55;3.47;;;;;;;;;;4840293;29;20037;-74
2022/06/22 18:17:27;;;;;;;11.18;3.60;;;;;;;;;;4837297;29;20045;-73
2022/06/22 18:20:29;;;;;;;11.23;3.35;;;;;;;;;;4843268;29;20044;-73
2022/06/22 18:23:00;;;;;;;13.95;3.78;;;;;;;;;;4829223;29;20046;-73
2022/06/22 18:25:33;;;;;;;12.50;3.70;;;;;;;;;;4834981;29;20658;-74
2022/06/22 18:28:20;;;;;;;13.10;3.47;;;;;;;;;;4837767;29;20452;-73
2022/06/22 18:31:05;;;;;;;12.88;3.25;;;;;;;;;;4840010;29;20391;-73
2022/06/22 18:33:46;;;;;;;14.23;3.33;;;;;;;;;;4840549;29;20520;-73
2022/06/22 18:36:40;;;;;;;11.30;3.08;;;;;;;;;;4840401;29;20474;-73
2022/06/22 18:42:08;;;;;;;13.82;2.92;;;;;;;;;;4839073;29;20525;-73
2022/06/22 18:44:57;;;;;;;11.43;3.05;;;;;;;;;;4842355;29;20048;-73
2022/06/22 18:47:58;;;;;;;12.80;2.97;;;;;;;;;;4840085;29;20034;-72
2022/06/22 18:50:27;;;;;;;10.65;3.10;;;;;;;;;;4845054;29;20050;-73
2022/06/22 18:53:15;;;;;;;9.95;3.08;;;;;;;;;;4844605;29;20114;-73
2022/06/22 18:55:47;;;;;;;10.48;3.45;;;;;;;;;;4843472;29;20427;-74
2022/06/22 18:58:18;;;;;;;11.65;3.28;;;;;;;;;;4841761;29;20050;-72
2022/06/22 19:00:49;;;;;;;13.60;3.40;;;;;;;;;;4846274;29;20095;-73
2022/06/22 19:03:30;;;;;;;11.98;3.25;;;;;;;;;;4839312;29;20064;-74
2022/06/22 19:06:11;;;;;;;13.18;2.83;;;;;;;;;;4842320;29;20173;-75
2022/06/22 19:08:45;;;;;;;16.35;3.28;;;;;;;;;;4839318;29;20104;-75
2022/06/22 19:11:15;;;;;;;16.27;3.75;;;;;;;;;;4837367;29;20037;-76
2022/06/22 19:14:03;;;;;;;9.43;2.97;;;;;;;;;;4840755;29;20109;-75
2022/06/22 19:17:00;;;;;;;11.73;3.17;;;;;;;;;;4838886;29;20101;-74
2022/06/22 19:20:06;;;;;;;12.73;2.88;;;;;;;;;;4840860;29;20042;-74
2022/06/22 19:22:58;;;;;;;13.02;3.03;;;;;;;;;;4808908;29;20058;-74
2022/06/22 19:25:26;;;;;;;13.97;3.50;;;;;;;;;;4842098;29;20102;-76
2022/06/22 19:28:10;;;;;;;10.57;3.10;;;;;;;;;;4840697;29;20045;-75
2022/06/22 19:30:56;;;;;;;12.32;3.03;;;;;;;;;;4841309;29;20043;-75
2022/06/22 19:33:49;;;;;;;12.07;3.08;;;;;;;;;;4834079;29;20136;-75
2022/06/22 19:36:46;;;;;;;8.35;2.90;;;;;;;;;;4838769;29;20618;-76
2022/06/22 19:39:22;;;;;;;11.48;2.85;;;;;;;;;;4833802;29;20512;-76
2022/06/22 19:41:54;;;;;;;11.40;3.17;;;;;;;;;;4843199;29;20041;-76
2022/06/22 19:44:56;;;;;;;11.23;3.63;;;;;;;;;;4833775;29;20354;-76
2022/06/22 19:47:37;;;;;;;13.03;3.43;;;;;;;;;;4839377;29;20026;-76
2022/06/22 19:50:28;;;;;;;12.68;3.28;;;;;;;;;;4839520;29;20034;-75
2022/06/22 19:53:15;;;;;;;8.63;3.00;;;;;;;;;;4835749;29;20074;-76
2022/06/22 19:56:02;;;;;;;9.10;2.90;;;;;;;;;;4820959;29;20049;-76
2022/06/22 19:58:28;;;;;;;15.35;4.13;;;;;;;;;;4835917;29;20048;-75
2022/06/22 20:01:14;;;;;;;20.38;3.78;;;;;;;;;;4838090;29;20042;-76
2022/06/22 20:04:05;;;;;;;12.55;3.28;;;;;;;;;;4838707;29;20046;-76
2022/06/22 20:06:44;;;;;;;14.43;3.58;;;;;;;;;;4814643;29;20501;-76
2022/06/22 20:09:24;;;;;;;17.50;3.72;;;;;;;;;;4817302;29;20053;-75
2022/06/22 20:11:53;;;;;;;10.40;3.42;;;;;;;;;;4837766;29;20053;-76
2022/06/22 20:14:35;;;;;;;11.10;3.15;;;;;;;;;;4835028;29;20252;-76
2022/06/22 20:17:12;;;;;;;14.63;3.30;;;;;;;;;;4833707;29;20030;-76
2022/06/22 20:19:38;;;;;;;13.27;3.35;;;;;;;;;;4834093;29;20234;-77
2022/06/22 20:22:20;;;;;;;11.60;3.45;;;;;;;;;;4838206;29;20080;-76
2022/06/22 20:25:00;;;;;;;15.38;4.40;;;;;;;;;;4835497;29;20061;-75
2022/06/22 20:27:42;;;;;;;10.60;3.40;;;;;;;;;;4839840;29;20158;-76
2022/06/22 20:30:13;;;;;;;11.15;2.97;;;;;;;;;;4835003;29;20420;-76
2022/06/22 20:32:56;;;;;;;7.93;2.80;;;;;;;;;;4848525;29;20466;-75
2022/06/22 20:35:37;;;;;;;9.75;3.22;;;;;;;;;;4844039;29;20398;-75
2022/06/22 20:38:07;;;;;;;15.35;4.32;;;;;;;;;;4846080;29;20178;-77
2022/06/22 20:41:53;;;;;;;11.20;3.40;;;;;;;;;;4839267;29;20049;-76
2022/06/22 20:44:16;;;;;;;11.82;3.20;;;;;;;;;;4847026;29;20521;-75
2022/06/22 20:47:11;;;;;;;15.43;3.22;;;;;;;;;;4841998;29;20451;-76
2022/06/22 20:49:45;;;;;;;7.65;2.65;;;;;;;;;;4838791;29;20486;-75
2022/06/22 20:52:17;;;;;;;8.85;2.90;;;;;;;;;;4840772;29;20522;-76
2022/06/22 20:54:55;;;;;;;16.27;3.08;;;;;;;;;;4844206;29;20133;-76
2022/06/22 20:57:30;;;;;;;10.48;3.30;;;;;;;;;;4828637;29;20229;-76
2022/06/22 21:00:12;;;;;;;11.07;3.30;;;;;;;;;;4841420;29;20098;-76
2022/06/22 21:02:51;;;;;;;12.02;2.97;;;;;;;;;;4846984;29;20540;-76
2022/06/22 21:05:32;;;;;;;15.00;2.78;;;;;;;;;;4825207;29;20062;-76
2022/06/22 21:08:01;;;;;;;10.45;3.38;;;;;;;;;;4840552;29;20057;-75
2022/06/22 21:10:32;;;;;;;11.35;3.00;;;;;;;;;;4840843;29;20065;-76
2022/06/22 21:13:05;;;;;;;9.88;3.55;;;;;;;;;;4841666;29;20079;-76
2022/06/22 21:15:42;;;;;;;13.40;3.67;;;;;;;;;;4841761;29;21323;-75
2022/06/22 21:18:10;;;;;;;8.35;3.60;;;;;;;;;;4842023;29;21238;-76
2022/06/22 21:20:38;;;;;;;16.55;3.50;;;;;;;;;;4826356;29;20376;-78
2022/06/22 21:23:21;;;;;;;11.32;3.58;;;;;;;;;;4839965;29;20041;-76
2022/06/22 21:26:07;;;;;;;11.43;3.83;;;;;;;;;;4841576;29;20035;-75
2022/06/22 21:29:30;;;;;;;11.40;3.50;;;;;;;;;;4846405;29;20053;-77
2022/06/22 21:31:20;;;;;;;9.98;3.67;;;;;;;;;;4842285;29;20045;-77
2022/06/22 21:34:21;;;;;;;9.65;3.50;;;;;;;;;;4841482;29;20052;-76
2022/06/22 21:37:13;;;;;;;8.07;3.38;;;;;;;;;;4841613;29;20041;-75
2022/06/22 21:40:18;;;;;;;11.85;3.63;;;;;;;;;;4836958;29;20105;-76
2022/06/22 21:43:14;;;;;;;13.10;4.22;;;;;;;;;;4839699;29;20099;-76
2022/06/22 21:45:58;;;;;;;12.02;3.97;;;;;;;;;;4831917;29;20095;-75
2022/06/22 21:48:51;;;;;;;15.15;3.78;;;;;;;;;;4832062;29;20414;-74
2022/06/22 21:51:33;;;;;;;10.93;3.70;;;;;;;;;;4835313;29;20049;-74
2022/06/22 21:54:26;;;;;;;12.88;4.68;;;;;;;;;;4826751;29;20065;-75
2022/06/22 21:56:51;;;;;;;9.63;3.10;;;;;;;;;;4838652;29;20034;-76
2022/06/22 21:59:19;;;;;;;8.10;3.17;;;;;;;;;;4820421;29;20026;-76
2022/06/22 22:02:22;;;;;;;12.35;3.75;;;;;;;;;;4833771;29;20379;-75
2022/06/22 22:04:59;;;;;;;14.73;4.45;;;;;;;;;;4822591;29;20145;-75
2022/06/22 22:07:46;;;;;;;12.25;3.78;;;;;;;;;;4838756;29;20061;-75
2022/06/22 22:10:17;;;;;;;10.32;3.78;;;;;;;;;;4836824;29;20042;-74
2022/06/22 22:12:46;;;;;;;10.60;3.65;;;;;;;;;;4834587;29;20054;-74
2022/06/22 22:15:25;;;;;;;10.23;3.67;;;;;;;;;;4818960;29;20046;-76
2022/06/22 22:17:55;;;;;;;14.23;3.85;;;;;;;;;;4837516;29;20037;-75
2022/06/22 22:20:38;;;;;;;14.35;5.07;;;;;;;;;;4835938;29;20120;-74
2022/06/22 22:23:18;;;;;;;9.82;4.25;;;;;;;;;;4835248;29;20053;-75
2022/06/22 22:26:05;;;;;;;13.27;4.40;;;;;;;;;;4836162;29;20736;-75
2022/06/22 22:28:39;;;;;;;12.98;4.28;;;;;;;;;;4836876;29;20494;-77
2022/06/22 22:31:05;;;;;;;12.15;3.97;;;;;;;;;;4837612;29;20372;-75
2022/06/22 22:33:32;;;;;;;9.57;3.97;;;;;;;;;;4842265;29;20041;-76
2022/06/22 22:36:13;;;;;;;11.70;4.30;;;;;;;;;;4843498;29;20478;-76
2022/06/22 22:38:44;;;;;;;14.30;4.13;;;;;;;;;;4843823;29;20086;-75
2022/06/22 22:41:12;;;;;;;12.40;4.07;;;;;;;;;;4844270;29;20439;-75
2022/06/22 22:43:50;;;;;;;10.43;4.47;;;;;;;;;;4845605;29;20025;-76
2022/06/22 22:46:47;;;;;;;14.18;4.07;;;;;;;;;;4845326;29;20049;-76
2022/06/22 22:49:16;;;;;;;11.50;4.15;;;;;;;;;;4841065;29;20053;-75
2022/06/22 22:52:04;;;;;;;9.63;3.65;;;;;;;;;;4827857;29;20510;-75
2022/06/22 22:54:34;;;;;;;10.50;4.25;;;;;;;;;;4842035;29;20115;-76
2022/06/22 22:57:21;;;;;;;10.48;3.97;;;;;;;;;;4845373;29;20490;-76
2022/06/22 22:59:48;;;;;;;12.07;3.83;;;;;;;;;;4830074;29;20041;-74
2022/06/22 23:02:40;;;;;;;18.17;4.68;;;;;;;;;;4844436;29;20611;-74
2022/06/22 23:05:11;;;;;;;8.02;3.55;;;;;;;;;;4838906;29;20179;-74
2022/06/22 23:07:36;;;;;;;12.80;3.67;;;;;;;;;;4835117;29;20558;-73
2022/06/22 23:10:21;;;;;;;12.07;4.30;;;;;;;;;;4836062;29;20121;-74
2022/06/22 23:12:47;;;;;;;11.63;4.72;;;;;;;;;;4834041;29;20140;-74
2022/06/22 23:15:12;;;;;;;13.98;4.40;;;;;;;;;;4839298;29;20186;-75
2022/06/22 23:17:38;;;;;;;11.45;4.00;;;;;;;;;;4827531;29;20049;-75
2022/06/22 23:20:04;;;;;;;13.45;4.20;;;;;;;;;;4835778;29;20034;-74
2022/06/22 23:22:34;;;;;;;8.85;3.53;;;;;;;;;;4839684;29;20049;-74
2022/06/22 23:25:09;;;;;;;10.35;4.40;;;;;;;;;;4840583;29;20473;-74
2022/06/22 23:27:36;;;;;;;14.65;4.22;;;;;;;;;;4841026;29;20038;-74
2022/06/22 23:30:20;;;;;;;12.98;4.53;;;;;;;;;;4838694;29;20487;-74
2022/06/22 23:32:46;;;;;;;10.38;3.58;;;;;;;;;;4838705;29;20046;-73
2022/06/22 23:35:13;;;;;;;11.88;3.60;;;;;;;;;;4839836;29;20044;-73
2022/06/22 23:37:51;;;;;;;15.77;4.25;;;;;;;;;;4841630;29;20041;-73
2022/06/22 23:40:30;;;;;;;14.85;3.78;;;;;;;;;;4836869;29;20045;-75
2022/06/22 23:43:02;;;;;;;11.20;3.67;;;;;;;;;;4838044;29;20049;-75
2022/06/22 23:45:30;;;;;;;15.43;4.10;;;;;;;;;;4838929;29;20050;-74
2022/06/22 23:48:11;;;;;;;10.65;3.75;;;;;;;;;;4842269;29;20041;-74
2022/06/22 23:50:58;;;;;;;11.60;3.70;;;;;;;;;;4837196;29;20046;-74
2022/06/22 23:53:38;;;;;;;8.43;3.53;;;;;;;;;;4836351;29;20062;-74
2022/06/22 23:56:10;;;;;;;12.27;3.90;;;;;;;;;;4838675;29;20040;-73
2022/06/22 23:58:37;;;;;;;11.20;3.35;;;;;;;;;;4837492;29;20493;-75
